Share

Muleshoe, TX

WT_Meso Muleshoe 2S (MMUST2) Alt 3806 ft | 34.21 °N, 102.74 °W | Change Station

Current weather conditions updated 30 minutes ago

Clear
Despejado
61 ° F
Sensación térmica 61 ° F
N
14
Viento Variable Viento desde SSO
Gusts 19.0 mph
Amanecer 7:13 AM
Atardecer 8:26 PM
Luna Gibosa menguante

Hoy se prevé un día Mucho más cálido que ayer.

Presión 29.98 pul
Visibilidad 10.0 Millas
Nubes Despejado
Punto de rocío 54 ° F
Humedad 78%
Precipitaciones -999.00 pul
Espesor de la nieve No disponible.
UV 4 de una escala de 16
Polen 7.10 de una escala de 12
Calidad del aire No disponible.
Flu Activity Local Activity
METAR KCVS 201458Z AUTO 24014KT 10SM CLR 15/09 A3007 RMK AO2 SLP150 T01450093 50003 $

More Conditions Fewer Conditions

Presión 29.98 pul
Visibilidad 10.0 Millas
Nubes Despejado
Punto de rocío 54 ° F
Humedad 78%
Precipitaciones -999.00 pul
Espesor de la nieve No disponible.
UV 4 de una escala de 16
Polen 7.10 de una escala de 12
Calidad del aire No disponible.
Flu Activity Local Activity
METAR KCVS 201458Z AUTO 24014KT 10SM CLR 15/09 A3007 RMK AO2 SLP150 T01450093 50003 $

More Conditions Fewer Conditions

10-Day Weather Forecast

Almanac

Astronomía

Apr. 20, 2014 Salida Puesta
Hora real 7:13 AM CDT 8:26 PM CDT
Crepúsculo civil 6:47 AM CDT 8:52 PM CDT
Crepúsculo náutico 6:16 AM CDT 9:23 PM CDT
Crepúsculo astronómico 5:44 AM CDT 9:56 PM CDT
Luna 1:02 AM CDT 11:41 AM CDT
Horas de luz 14h 05m
Horas de luz
13h 12m
Tomorrow will be 1m 58s longer.
Gibosa menguante, 69% of the Moon is Illuminated
Hoy
Gibosa menguante
Abr 22
Cuarto menguante
Abr 29
Nueva
May 6
Cuarto creciente
May 14
Luna llena

Extremos de hoy

Máximos del estado Bajos del estado

Community

  • Easter Sunrise
    Easter Sunrise
  • Easter Eve - The Promise - Lake Palestine, TX
    Easter Eve - The Promise - Lake Palestine, TX
  • Happy Easter
    Happy Easter
  • EARLY FOGGY MORNING
    EARLY FOGGY MORNING
  • Easter Greetings
    Easter Greetings

WunderPhotos

Upload Photos

1,703,259 ¡fotos cargadas!

WunderBlogs® & News

Nearby

Grosos de nieve

Estación Profundido Altura
No tenemos constancia de nieve nueva.

Temperaturas de aguas costeras

Lugar Temperatura
Sin partes meteorológicos de las estaciones

Actividad de terremotos

Ciudad Distance Mag. Tiempo y dato
No hay informes recientes de la actividad sísmica.
Magnitud mínima muestra es 2,5.

Estaciones meteorológicas cercanas

Ubicación de la estación Temp. Punto de rocío Humedad Viento Precip. Alt Actualizado Tipo
WT_Meso Muleshoe 2S, Muleshoe, TX 61 ° F 54 ° F 78% SSO  a  14 mph 0.00 pul / hr 3806 ft 10:25 AM CDT MADIS
WT_Meso Amherst 1NE, Amherst, TX 60 ° F 55 ° F 86% Sur  a  9 mph 0.00 pul / hr 3646 ft 10:25 AM CDT MADIS

Show More Stations Show Fewer Stations

What do you think?

We're not finished. Please let us know what you like, what you don't like, and what you are still missing.